createdAt,value
2024-03-24T00:00:16.061Z,29.588000
2024-03-24T00:05:16.250Z,29.580000
2024-03-24T00:10:16.276Z,29.577000
2024-03-24T00:15:16.134Z,29.590000
2024-03-24T00:20:16.336Z,29.586000
2024-03-24T00:25:16.095Z,29.582000
2024-03-24T00:30:16.126Z,29.583000
2024-03-24T00:35:16.346Z,29.589000
2024-03-24T00:40:16.328Z,29.602000
2024-03-24T00:45:16.313Z,29.591000
2024-03-24T00:50:18.251Z,29.597000
2024-03-24T00:55:16.368Z,29.600000
2024-03-24T01:00:16.359Z,29.608000
2024-03-24T01:05:16.170Z,29.613000
2024-03-24T01:10:16.412Z,29.622000
2024-03-24T01:15:16.183Z,29.609000
2024-03-24T01:20:16.199Z,29.617000
2024-03-24T01:25:16.189Z,29.618000
2024-03-24T01:30:16.478Z,29.625000
2024-03-24T01:35:16.383Z,29.627000
2024-03-24T01:40:16.434Z,29.634000
2024-03-24T01:45:16.451Z,29.633000
2024-03-24T01:50:16.300Z,29.638000
2024-03-24T01:55:16.303Z,29.635000
2024-03-24T02:00:16.291Z,29.638000
2024-03-24T02:05:16.318Z,29.644000
2024-03-24T02:10:16.311Z,29.648000
2024-03-24T02:15:16.298Z,29.648000
2024-03-24T02:20:16.378Z,29.643000
2024-03-24T02:25:16.361Z,29.644000
2024-03-24T02:30:16.315Z,29.643000
2024-03-24T02:35:16.295Z,29.640000
2024-03-24T02:40:16.347Z,29.635000
2024-03-24T02:45:16.323Z,29.635000
2024-03-24T02:50:16.365Z,29.637000
2024-03-24T02:55:16.387Z,29.635000
2024-03-24T03:00:16.384Z,29.639000
2024-03-24T03:05:16.410Z,29.640000
2024-03-24T03:10:16.481Z,29.637000
2024-03-24T03:15:16.394Z,29.641000
2024-03-24T03:20:16.425Z,29.646000
2024-03-24T03:25:16.425Z,29.644000
2024-03-24T03:30:16.445Z,29.651000
2024-03-24T03:35:16.578Z,29.647000
2024-03-24T03:40:16.642Z,29.649000
2024-03-24T03:45:16.462Z,29.646000
2024-03-24T03:50:16.454Z,29.645000
2024-03-24T03:55:16.471Z,29.650000
2024-03-24T04:00:15.946Z,29.655000
2024-03-24T04:05:16.017Z,29.664000
2024-03-24T04:10:16.246Z,29.669000
2024-03-24T04:15:16.098Z,29.672000
2024-03-24T04:20:16.031Z,29.673000
2024-03-24T04:25:16.057Z,29.674000
2024-03-24T04:30:16.022Z,29.671000
2024-03-24T04:35:16.028Z,29.679000
2024-03-24T04:40:16.076Z,29.683000
2024-03-24T04:45:16.030Z,29.691000
2024-03-24T04:50:16.043Z,29.694000
2024-03-24T04:55:18.102Z,29.702000
2024-03-24T05:00:16.078Z,29.705000
2024-03-24T05:05:16.090Z,29.706000
2024-03-24T05:10:16.105Z,29.715000
2024-03-24T05:15:16.064Z,29.719000
2024-03-24T05:20:16.142Z,29.726000
2024-03-24T05:25:16.293Z,29.733000
2024-03-24T05:30:16.305Z,29.738000
2024-03-24T05:35:16.305Z,29.745000
2024-03-24T05:40:16.172Z,29.748000
2024-03-24T05:45:16.143Z,29.756000
2024-03-24T05:50:16.165Z,29.758000
2024-03-24T05:55:16.172Z,29.768000
2024-03-24T06:00:16.209Z,29.770000
2024-03-24T06:05:16.187Z,29.779000
2024-03-24T06:10:16.208Z,29.784000
2024-03-24T06:15:16.401Z,29.786000
2024-03-24T06:20:16.238Z,29.792000
2024-03-24T06:25:17.240Z,29.797000
2024-03-24T06:30:16.228Z,29.807000
2024-03-24T06:35:16.213Z,29.805000
2024-03-24T06:40:16.489Z,29.812000
2024-03-24T06:45:16.294Z,29.811000
2024-03-24T06:50:16.263Z,29.818000
2024-03-24T06:55:18.323Z,29.822000
2024-03-24T07:00:16.467Z,29.829000
2024-03-24T07:05:16.268Z,29.830000
2024-03-24T07:10:16.314Z,29.833000
2024-03-24T07:15:16.320Z,29.842000
2024-03-24T07:20:16.339Z,29.845000
2024-03-24T07:25:16.351Z,29.850000
2024-03-24T07:30:16.622Z,29.852000
2024-03-24T07:35:16.530Z,29.852000
2024-03-24T07:40:16.566Z,29.857000
2024-03-24T07:45:16.413Z,29.863000
2024-03-24T07:50:16.410Z,29.869000
2024-03-24T07:55:16.370Z,29.878000
2024-03-24T08:00:16.384Z,29.879000
2024-03-24T08:05:16.399Z,29.879000
2024-03-24T08:10:16.413Z,29.887000
2024-03-24T08:15:16.668Z,29.890000
2024-03-24T08:20:16.644Z,29.892000
2024-03-24T08:25:16.418Z,29.896000
2024-03-24T08:30:16.449Z,29.900000
2024-03-24T08:35:16.410Z,29.905000
2024-03-24T08:40:16.444Z,29.908000
2024-03-24T08:45:16.623Z,29.914000
2024-03-24T08:50:16.528Z,29.921000
2024-03-24T08:55:16.476Z,29.928000
2024-03-24T09:00:16.492Z,29.933000
2024-03-24T09:05:16.505Z,29.934000
2024-03-24T09:10:16.488Z,29.935000
2024-03-24T09:15:16.500Z,29.947000
2024-03-24T09:20:16.721Z,29.950000
2024-03-24T09:25:16.535Z,29.957000
2024-03-24T09:30:16.598Z,29.963000
2024-03-24T09:35:16.580Z,29.964000
2024-03-24T09:40:16.555Z,29.968000
2024-03-24T09:45:16.558Z,29.971000
2024-03-24T09:50:16.591Z,29.978000
2024-03-24T09:55:16.562Z,29.979000
2024-03-24T10:00:16.588Z,29.978000
2024-03-24T10:05:16.621Z,29.986000
2024-03-24T10:10:16.830Z,29.990000
2024-03-24T10:15:16.863Z,29.997000
2024-03-24T10:20:16.634Z,30.004000
2024-03-24T10:25:16.666Z,30.006000
2024-03-24T10:30:16.930Z,30.015000
2024-03-24T10:35:16.801Z,30.026000
2024-03-24T10:40:16.943Z,30.028000
2024-03-24T10:45:16.709Z,30.031000
2024-03-24T10:50:16.714Z,30.034000
2024-03-24T10:55:19.305Z,30.043000
2024-03-24T11:00:16.712Z,30.048000
2024-03-24T11:05:19.273Z,30.053000
2024-03-24T11:10:16.712Z,30.058000
2024-03-24T11:15:16.693Z,30.057000
2024-03-24T11:20:16.753Z,30.058000
2024-03-24T11:25:16.738Z,30.061000
2024-03-24T11:30:16.719Z,30.063000
2024-03-24T11:35:16.746Z,30.071000
2024-03-24T11:40:16.761Z,30.074000
2024-03-24T11:45:16.801Z,30.075000
2024-03-24T11:50:16.792Z,30.084000
2024-03-24T11:55:16.796Z,30.086000
2024-03-24T12:00:16.813Z,30.093000
2024-03-24T12:05:16.816Z,30.094000
2024-03-24T12:10:16.821Z,30.087000
2024-03-24T12:15:17.047Z,30.089000
2024-03-24T12:20:16.841Z,30.097000
2024-03-24T12:25:17.004Z,30.098000
2024-03-24T12:30:16.863Z,30.103000
2024-03-24T12:35:17.041Z,30.106000
2024-03-24T12:40:17.087Z,30.108000
2024-03-24T12:45:17.009Z,30.114000
2024-03-24T12:50:31.751Z,30.122000
2024-03-24T12:55:16.884Z,30.128000
2024-03-24T13:00:16.909Z,30.131000
2024-03-24T13:05:16.917Z,30.133000
2024-03-24T13:10:16.955Z,30.136000
2024-03-24T13:15:17.079Z,30.135000
2024-03-24T13:20:17.145Z,30.137000
2024-03-24T13:25:16.938Z,30.139000
2024-03-24T13:30:16.993Z,30.145000
2024-03-24T13:35:16.993Z,30.151000
2024-03-24T13:40:17.151Z,30.153000
2024-03-24T13:45:17.162Z,30.156000
2024-03-24T13:50:17.008Z,30.163000
2024-03-24T13:55:17.022Z,30.167000
2024-03-24T14:00:17.019Z,30.167000
2024-03-24T14:05:17.223Z,30.170000
2024-03-24T14:10:17.067Z,30.172000
2024-03-24T14:15:17.011Z,30.172000
2024-03-24T14:20:17.047Z,30.177000
2024-03-24T14:25:17.056Z,30.180000
2024-03-24T14:30:17.057Z,30.188000
2024-03-24T14:35:17.075Z,30.190000
2024-03-24T14:40:17.312Z,30.191000
2024-03-24T14:45:17.261Z,30.195000
2024-03-24T14:50:17.112Z,30.198000
2024-03-24T14:55:17.098Z,30.198000
2024-03-24T15:00:17.118Z,30.200000
2024-03-24T15:05:17.108Z,30.204000
2024-03-24T15:10:17.226Z,30.204000
2024-03-24T15:15:17.383Z,30.207000
2024-03-24T15:20:17.149Z,30.207000
2024-03-24T15:25:19.203Z,30.209000
2024-03-24T15:30:17.154Z,30.212000
2024-03-24T15:35:17.211Z,30.215000
2024-03-24T15:40:15.161Z,30.215000
2024-03-24T15:45:15.183Z,30.217000
2024-03-24T15:50:15.395Z,30.219000
2024-03-24T15:55:15.214Z,30.217000
2024-03-24T16:00:15.250Z,30.219000
2024-03-24T16:05:17.281Z,30.221000
2024-03-24T16:10:15.238Z,30.218000
2024-03-24T16:15:15.259Z,30.219000
2024-03-24T16:20:15.483Z,30.217000
2024-03-24T16:25:15.492Z,30.220000
2024-03-24T16:30:15.292Z,30.220000
2024-03-24T16:35:15.473Z,30.223000
2024-03-24T16:40:15.533Z,30.222000
2024-03-24T16:45:15.296Z,30.227000
2024-03-24T16:50:15.522Z,30.230000
2024-03-24T16:55:15.350Z,30.229000
2024-03-24T17:00:15.380Z,30.225000
2024-03-24T17:05:15.632Z,30.224000
2024-03-24T17:10:15.380Z,30.224000
2024-03-24T17:15:15.540Z,30.219000
2024-03-24T17:20:15.411Z,30.217000
2024-03-24T17:25:15.356Z,30.218000
2024-03-24T17:30:15.503Z,30.218000
2024-03-24T17:35:15.605Z,30.218000
2024-03-24T17:40:15.425Z,30.217000
2024-03-24T17:45:15.394Z,30.218000
2024-03-24T17:50:15.459Z,30.219000
2024-03-24T17:55:15.416Z,30.219000
2024-03-24T18:00:15.455Z,30.220000
2024-03-24T18:05:15.649Z,30.219000
2024-03-24T18:10:19.022Z,30.223000
2024-03-24T18:15:15.473Z,30.224000
2024-03-24T18:20:15.648Z,30.218000
2024-03-24T18:25:15.653Z,30.218000
2024-03-24T18:30:15.458Z,30.220000
2024-03-24T18:35:15.509Z,30.220000
2024-03-24T18:40:15.731Z,30.221000
2024-03-24T18:45:15.700Z,30.218000
2024-03-24T18:50:15.512Z,30.219000
2024-03-24T18:55:15.532Z,30.219000
2024-03-24T19:00:15.601Z,30.221000
2024-03-24T19:05:15.530Z,30.216000
2024-03-24T19:10:15.610Z,30.216000
2024-03-24T19:15:15.601Z,30.216000
2024-03-24T19:20:15.569Z,30.215000
2024-03-24T19:25:15.732Z,30.219000
2024-03-24T19:30:15.587Z,30.217000
2024-03-24T19:35:15.577Z,30.222000
2024-03-24T19:40:15.597Z,30.225000
2024-03-24T19:45:15.614Z,30.220000
2024-03-24T19:50:15.642Z,30.222000
2024-03-24T19:55:17.682Z,30.225000
2024-03-24T20:00:15.641Z,30.225000
2024-03-24T20:05:15.810Z,30.225000
2024-03-24T20:10:15.676Z,30.225000
2024-03-24T20:15:15.635Z,30.227000
2024-03-24T20:20:15.711Z,30.228000
2024-03-24T20:25:15.680Z,30.232000
2024-03-24T20:30:15.663Z,30.231000
2024-03-24T20:35:15.858Z,30.234000
2024-03-24T20:40:15.769Z,30.239000
2024-03-24T20:45:15.733Z,30.239000
2024-03-24T20:50:15.898Z,30.246000
2024-03-24T20:55:15.899Z,30.249000
2024-03-24T21:00:15.751Z,30.252000
2024-03-24T21:05:15.755Z,30.255000
2024-03-24T21:10:15.918Z,30.258000
2024-03-24T21:15:15.816Z,30.258000
2024-03-24T21:20:15.944Z,30.259000
2024-03-24T21:25:15.808Z,30.261000
2024-03-24T21:30:15.824Z,30.261000
2024-03-24T21:35:18.261Z,30.267000
2024-03-24T21:40:15.850Z,30.264000
2024-03-24T21:45:16.094Z,30.267000
2024-03-24T21:50:15.857Z,30.268000
2024-03-24T21:55:15.858Z,30.272000
2024-03-24T22:00:15.814Z,30.277000
2024-03-24T22:05:16.021Z,30.277000
2024-03-24T22:10:15.845Z,30.276000
2024-03-24T22:15:15.863Z,30.283000
2024-03-24T22:20:15.908Z,30.283000
2024-03-24T22:25:15.866Z,30.286000
2024-03-24T22:30:15.892Z,30.293000
2024-03-24T22:35:15.907Z,30.294000
2024-03-24T22:40:15.893Z,30.297000
2024-03-24T22:45:15.911Z,30.296000
2024-03-24T22:50:15.916Z,30.295000
2024-03-24T22:55:15.929Z,30.300000
2024-03-24T23:00:15.969Z,30.304000
2024-03-24T23:05:15.943Z,30.309000
2024-03-24T23:10:15.964Z,30.312000
2024-03-24T23:15:15.937Z,30.313000
2024-03-24T23:20:16.196Z,30.316000
2024-03-24T23:25:16.016Z,30.315000
2024-03-24T23:30:15.971Z,30.317000
2024-03-24T23:35:16.058Z,30.323000
2024-03-24T23:40:16.005Z,30.325000
2024-03-24T23:45:15.989Z,30.327000
2024-03-24T23:50:16.220Z,30.329000
2024-03-24T23:55:16.042Z,30.334000
